Time;durP1;ratioP1;P1;durP2;ratioP2;P2;SDS_P1;SDS_P2;PMS_P1;PMS_P2;Temp;Humidity;BMP_temperature;BMP_pressure;BME280_temperature;BME280_humidity;BME280_pressure;Samples;Min_cycle;Max_cycle;Signal;HPM_P1;HPM_P2
2022/07/23 00:00:36;;;;;;;3.00;2.13;;;15.30;99.90;;;;;;5046780;28;20040;-76
2022/07/23 00:03:02;;;;;;;4.90;2.00;;;15.30;99.90;;;;;;5042828;28;20057;-75
2022/07/23 00:05:27;;;;;;;3.45;2.30;;;15.40;99.90;;;;;;5030901;28;20079;-76
2022/07/23 00:07:53;;;;;;;2.58;2.03;;;15.20;99.90;;;;;;5047364;28;20044;-76
2022/07/23 00:10:19;;;;;;;5.82;2.22;;;15.20;99.90;;;;;;5052657;28;20040;-75
2022/07/23 00:12:44;;;;;;;5.55;2.42;;;15.10;99.90;;;;;;5058917;28;20037;-76
2022/07/23 00:15:10;;;;;;;2.50;2.10;;;15.10;99.90;;;;;;5039579;28;20044;-75
2022/07/23 00:17:36;;;;;;;4.32;2.00;;;15.10;99.90;;;;;;5050470;28;20037;-76
2022/07/23 00:20:03;;;;;;;4.40;2.00;;;15.10;99.90;;;;;;5036528;28;20091;-76
2022/07/23 00:22:29;;;;;;;3.42;2.30;;;15.10;99.90;;;;;;5043341;28;20087;-75
2022/07/23 00:24:55;;;;;;;5.07;2.47;;;15.10;99.90;;;;;;5043432;28;20117;-75
2022/07/23 00:27:21;;;;;;;4.40;2.10;;;15.10;99.90;;;;;;5051707;28;20033;-76
2022/07/23 00:29:46;;;;;;;3.25;2.28;;;15.10;99.90;;;;;;5054218;28;20401;-76
2022/07/23 00:32:12;;;;;;;3.60;1.95;;;15.00;99.90;;;;;;5044069;28;20033;-76
2022/07/23 00:34:38;;;;;;;5.72;2.00;;;15.00;99.90;;;;;;5044259;28;20033;-76
2022/07/23 00:37:03;;;;;;;5.07;2.10;;;15.00;99.90;;;;;;5030455;28;20041;-76
2022/07/23 00:39:29;;;;;;;3.42;1.92;;;14.90;99.90;;;;;;5047354;28;20045;-76
2022/07/23 00:41:54;;;;;;;2.42;1.98;;;14.90;99.90;;;;;;5042045;28;20052;-76
2022/07/23 00:44:25;;;;;;;2.92;2.13;;;15.00;99.90;;;;;;5047795;28;20071;-76
2022/07/23 00:47:00;;;;;;;3.10;2.13;;;14.80;99.90;;;;;;5053932;28;20095;-77
2022/07/23 00:49:28;;;;;;;2.80;2.05;;;14.80;99.90;;;;;;5072036;28;20037;-76
2022/07/23 00:51:54;;;;;;;2.85;2.30;;;14.80;99.90;;;;;;5049456;28;20036;-76
2022/07/23 00:54:23;;;;;;;3.08;2.10;;;14.70;99.90;;;;;;5065125;28;20539;-76
2022/07/23 00:56:48;;;;;;;2.35;2.03;;;14.80;99.90;;;;;;5053916;28;20059;-76
2022/07/23 00:59:14;;;;;;;6.07;3.20;;;14.60;99.90;;;;;;5053314;28;20048;-76
2022/07/23 01:01:40;;;;;;;5.13;2.08;;;14.60;99.90;;;;;;5049282;28;20046;-76
2022/07/23 01:04:07;;;;;;;3.20;1.80;;;14.60;99.90;;;;;;5041944;28;20484;-76
2022/07/23 01:06:38;;;;;;;4.82;2.55;;;15.00;99.90;;;;;;5043278;28;20401;-76
2022/07/23 01:09:05;;;;;;;2.83;1.90;;;14.50;99.90;;;;;;5041456;28;20041;-80
2022/07/23 01:11:35;;;;;;;3.20;1.80;;;14.50;99.90;;;;;;5063034;28;20485;-77
2022/07/23 01:14:17;;;;;;;2.67;1.90;;;14.50;99.90;;;;;;5051196;28;20051;-77
2022/07/23 01:16:44;;;;;;;1.70;1.60;;;14.50;99.90;;;;;;5039662;28;20091;-76
2022/07/23 01:19:10;;;;;;;2.58;1.67;;;14.40;99.90;;;;;;5048519;28;20064;-76
2022/07/23 01:21:39;;;;;;;3.65;2.13;;;14.40;99.90;;;;;;5039516;28;20041;-77
2022/07/23 01:24:05;;;;;;;4.32;2.28;;;14.40;99.90;;;;;;5040430;28;20079;-76
2022/07/23 01:26:32;;;;;;;4.85;2.15;;;14.40;99.90;;;;;;5025288;28;20037;-76
2022/07/23 01:28:57;;;;;;;3.63;1.83;;;14.30;99.90;;;;;;5049714;28;20405;-76
2022/07/23 01:31:23;;;;;;;2.83;2.00;;;14.30;99.90;;;;;;5050988;28;20033;-76
2022/07/23 01:33:48;;;;;;;3.00;2.20;;;14.30;99.90;;;;;;5067741;28;20033;-76
2022/07/23 01:36:14;;;;;;;3.10;2.03;;;14.30;99.90;;;;;;5039848;28;20052;-77
2022/07/23 01:38:40;;;;;;;2.05;1.85;;;14.20;99.90;;;;;;5054693;28;20466;-77
2022/07/23 01:41:05;;;;;;;2.92;1.90;;;14.20;99.90;;;;;;5046775;28;20385;-77
2022/07/23 01:43:31;;;;;;;2.97;2.08;;;14.20;99.90;;;;;;5045274;28;20041;-77
2022/07/23 01:45:57;;;;;;;2.65;2.08;;;14.10;99.90;;;;;;5042894;28;20128;-76
2022/07/23 01:48:22;;;;;;;3.85;1.60;;;14.10;99.90;;;;;;5044881;28;20457;-78
2022/07/23 01:50:48;;;;;;;3.92;1.98;;;14.10;99.90;;;;;;5047512;28;20041;-76
2022/07/23 01:53:14;;;;;;;3.10;1.73;;;14.00;99.90;;;;;;5046176;28;20083;-77
2022/07/23 01:55:41;;;;;;;3.67;2.03;;;13.90;99.90;;;;;;5041581;28;20493;-77
2022/07/23 01:58:07;;;;;;;3.72;2.20;;;14.20;99.90;;;;;;5049738;28;20545;-77
2022/07/23 02:00:33;;;;;;;3.70;2.08;;;13.90;99.90;;;;;;5042921;28;20120;-77
2022/07/23 02:02:58;;;;;;;5.72;2.10;;;13.90;99.90;;;;;;5054597;28;20389;-77
2022/07/23 02:05:25;;;;;;;2.20;1.98;;;14.10;99.90;;;;;;5042057;28;20104;-78
2022/07/23 02:07:52;;;;;;;2.63;2.00;;;13.90;99.90;;;;;;5049732;28;20051;-77
2022/07/23 02:10:18;;;;;;;2.17;1.88;;;14.00;99.90;;;;;;5039903;28;20041;-78
2022/07/23 02:12:43;;;;;;;2.45;1.65;;;13.80;99.90;;;;;;5042578;28;20548;-77
2022/07/23 02:15:09;;;;;;;3.13;1.70;;;13.80;99.90;;;;;;5042861;28;20049;-77
2022/07/23 02:17:35;;;;;;;3.75;1.10;;;13.80;99.90;;;;;;5031336;28;20124;-77
2022/07/23 02:20:01;;;;;;;1.80;0.93;;;13.70;99.90;;;;;;5042283;28;20127;-77
2022/07/23 02:22:27;;;;;;;0.98;0.98;;;13.70;99.90;;;;;;5046432;28;20046;-77
2022/07/23 02:24:53;;;;;;;2.03;1.20;;;13.70;99.90;;;;;;5049597;28;20520;-76
2022/07/23 02:27:18;;;;;;;1.40;1.30;;;13.80;99.90;;;;;;5055323;28;20045;-76
2022/07/23 02:29:44;;;;;;;2.33;1.50;;;13.70;99.90;;;;;;5048618;28;20169;-77
2022/07/23 02:32:09;;;;;;;1.92;1.58;;;13.60;99.90;;;;;;5042500;28;20037;-76
2022/07/23 02:34:35;;;;;;;3.03;1.67;;;13.60;99.90;;;;;;5043548;28;20095;-77
2022/07/23 02:37:02;;;;;;;3.83;1.88;;;13.60;99.90;;;;;;5043492;28;20127;-77
2022/07/23 02:39:27;;;;;;;2.70;1.70;;;13.60;99.90;;;;;;5042755;28;20054;-77
2022/07/23 02:41:53;;;;;;;2.10;1.65;;;13.60;99.90;;;;;;5051202;28;20045;-77
2022/07/23 02:44:18;;;;;;;1.95;1.52;;;13.70;99.90;;;;;;5044675;28;20025;-77
2022/07/23 02:46:44;;;;;;;5.43;1.40;;;13.50;99.90;;;;;;5047678;28;20083;-78
2022/07/23 02:49:10;;;;;;;3.10;1.90;;;13.50;99.90;;;;;;5049554;28;20048;-76
2022/07/23 02:51:35;;;;;;;2.72;2.05;;;13.50;99.90;;;;;;5062388;28;20052;-76
2022/07/23 02:54:01;;;;;;;2.65;1.92;;;13.40;99.90;;;;;;5050934;28;20036;-76
2022/07/23 02:56:27;;;;;;;2.38;1.75;;;13.40;99.90;;;;;;5044270;28;20102;-76
2022/07/23 02:58:52;;;;;;;4.68;1.40;;;13.40;99.90;;;;;;5047623;28;20489;-76
2022/07/23 03:01:18;;;;;;;3.38;1.42;;;13.30;99.90;;;;;;5042852;28;20526;-76
2022/07/23 03:03:43;;;;;;;2.13;1.40;;;13.30;99.90;;;;;;5048363;28;20040;-77
2022/07/23 03:06:09;;;;;;;4.07;1.73;;;13.40;99.90;;;;;;5043477;28;20044;-76
2022/07/23 03:08:35;;;;;;;5.10;1.70;;;13.30;99.90;;;;;;5041499;28;20148;-76
2022/07/23 03:11:00;;;;;;;2.72;1.70;;;13.20;99.90;;;;;;5041377;28;20533;-76
2022/07/23 03:13:26;;;;;;;3.92;1.70;;;13.20;99.90;;;;;;5054356;28;20090;-76
2022/07/23 03:15:51;;;;;;;2.35;1.70;;;13.60;99.90;;;;;;5047306;28;20049;-76
2022/07/23 03:18:17;;;;;;;3.47;1.40;;;13.20;99.90;;;;;;5047391;28;20094;-76
2022/07/23 03:20:43;;;;;;;2.45;1.60;;;13.10;99.90;;;;;;5042652;28;20132;-76
2022/07/23 03:23:08;;;;;;;2.60;1.60;;;13.20;99.90;;;;;;5053244;28;20045;-76
2022/07/23 03:25:34;;;;;;;2.25;1.80;;;13.10;99.90;;;;;;5043197;28;20040;-76
2022/07/23 03:27:59;;;;;;;4.53;1.90;;;13.10;99.90;;;;;;5048357;28;20032;-76
2022/07/23 03:30:25;;;;;;;4.97;2.20;;;13.10;99.90;;;;;;5041646;28;20037;-76
2022/07/23 03:32:51;;;;;;;2.35;2.05;;;13.10;99.90;;;;;;5049853;28;20033;-77
2022/07/23 03:35:16;;;;;;;3.55;1.98;;;13.10;99.90;;;;;;5048986;28;20125;-76
2022/07/23 03:37:42;;;;;;;2.95;1.70;;;13.30;99.90;;;;;;5029883;28;20038;-76
2022/07/23 03:40:08;;;;;;;1.92;1.65;;;13.30;99.90;;;;;;5045610;28;20041;-76
2022/07/23 03:42:34;;;;;;;2.40;1.70;;;13.00;99.90;;;;;;5037691;28;20045;-76
2022/07/23 03:45:00;;;;;;;5.72;2.03;;;13.00;99.90;;;;;;5043615;28;20033;-77
2022/07/23 03:47:26;;;;;;;4.55;2.20;;;12.90;99.90;;;;;;5051352;28;20041;-76
2022/07/23 03:49:51;;;;;;;3.05;2.08;;;12.90;99.90;;;;;;5041307;28;20045;-76
2022/07/23 03:52:17;;;;;;;2.88;2.13;;;13.10;99.90;;;;;;5051505;28;20048;-76
2022/07/23 03:54:42;;;;;;;3.58;2.13;;;13.20;99.90;;;;;;5051378;28;20125;-76
2022/07/23 03:57:08;;;;;;;3.17;2.17;;;12.80;99.90;;;;;;5042303;28;20432;-78
2022/07/23 03:59:34;;;;;;;3.00;2.13;;;12.90;99.90;;;;;;5048637;28;20037;-75
2022/07/23 04:01:59;;;;;;;3.33;2.20;;;12.80;99.90;;;;;;5049295;28;20048;-75
2022/07/23 04:04:25;;;;;;;3.65;2.30;;;12.80;99.90;;;;;;5050963;28;20092;-75
2022/07/23 04:06:50;;;;;;;2.90;1.70;;;12.70;99.90;;;;;;5037850;28;20564;-75
2022/07/23 04:09:16;;;;;;;2.67;1.80;;;12.80;99.90;;;;;;5053263;28;20028;-75
2022/07/23 04:11:42;;;;;;;1.75;1.60;;;12.70;99.90;;;;;;5048760;28;20029;-75
2022/07/23 04:14:08;;;;;;;3.03;1.60;;;12.70;99.90;;;;;;5046425;28;20037;-75
2022/07/23 04:16:34;;;;;;;2.50;1.77;;;12.70;99.90;;;;;;5045470;28;20405;-75
2022/07/23 04:19:00;;;;;;;1.98;1.77;;;12.60;99.90;;;;;;5057354;28;20435;-75
2022/07/23 04:21:25;;;;;;;2.85;1.80;;;12.80;99.90;;;;;;5044786;28;20438;-75
2022/07/23 04:23:51;;;;;;;2.28;1.80;;;12.70;99.90;;;;;;5040158;28;20646;-75
2022/07/23 04:26:16;;;;;;;2.47;1.90;;;12.80;99.90;;;;;;5043950;28;20045;-75
2022/07/23 04:28:42;;;;;;;1.80;1.50;;;12.70;99.90;;;;;;5044215;28;20036;-75
2022/07/23 04:31:08;;;;;;;3.33;1.80;;;12.80;99.90;;;;;;5048625;28;20044;-75
2022/07/23 04:33:34;;;;;;;2.53;2.00;;;12.70;99.90;;;;;;5039143;28;20045;-75
2022/07/23 04:35:59;;;;;;;3.30;1.80;;;12.70;99.90;;;;;;5043490;28;20052;-75
2022/07/23 04:38:25;;;;;;;2.22;1.60;;;12.80;99.90;;;;;;5051748;28;20044;-75
2022/07/23 04:40:50;;;;;;;3.10;2.22;;;12.80;99.90;;;;;;5053382;28;20045;-75
2022/07/23 04:43:16;;;;;;;3.72;2.50;;;12.80;99.90;;;;;;5044124;28;20037;-75
2022/07/23 04:45:42;;;;;;;3.50;2.20;;;12.90;99.90;;;;;;5056120;28;20480;-75
2022/07/23 04:48:07;;;;;;;4.45;2.40;;;12.90;99.90;;;;;;5053764;28;20501;-75
2022/07/23 04:50:33;;;;;;;3.47;2.22;;;12.90;99.90;;;;;;5045082;28;20037;-75
2022/07/23 04:52:58;;;;;;;3.47;2.40;;;12.90;99.90;;;;;;5039075;28;20042;-75
2022/07/23 04:55:24;;;;;;;6.00;3.30;;;12.90;99.90;;;;;;5045508;28;20030;-75
2022/07/23 04:57:50;;;;;;;6.85;3.70;;;13.00;99.90;;;;;;5044046;28;20038;-75
2022/07/23 05:00:16;;;;;;;4.97;3.25;;;13.00;99.90;;;;;;5031395;28;20447;-76
2022/07/23 05:02:41;;;;;;;5.40;3.80;;;13.00;99.90;;;;;;5054921;28;20467;-77
2022/07/23 05:05:07;;;;;;;4.95;3.67;;;13.00;99.90;;;;;;5050461;28;20076;-79
2022/07/23 05:07:33;;;;;;;5.95;4.20;;;13.00;99.90;;;;;;5038662;28;20034;-79
2022/07/23 05:09:59;;;;;;;5.55;3.92;;;13.10;99.90;;;;;;5048208;28;20082;-79
2022/07/23 05:12:24;;;;;;;5.90;3.95;;;13.10;99.90;;;;;;5044384;28;20098;-79
2022/07/23 05:14:50;;;;;;;8.18;4.25;;;13.10;99.90;;;;;;5051939;28;20456;-79
2022/07/23 05:17:15;;;;;;;8.30;4.22;;;13.20;99.90;;;;;;5036104;28;20052;-79
2022/07/23 05:19:41;;;;;;;10.38;4.95;;;13.10;99.90;;;;;;5049200;28;20044;-79
2022/07/23 05:22:07;;;;;;;10.55;4.10;;;13.20;99.90;;;;;;5047820;28;20416;-79
2022/07/23 05:24:32;;;;;;;7.47;4.60;;;13.20;99.90;;;;;;5039206;28;20046;-79
2022/07/23 05:26:58;;;;;;;7.82;4.53;;;13.30;99.90;;;;;;5047470;28;20191;-79
2022/07/23 05:29:23;;;;;;;5.93;3.97;;;13.30;99.90;;;;;;5043408;28;20035;-79
2022/07/23 05:31:49;;;;;;;6.68;4.18;;;13.80;99.90;;;;;;5042259;28;20049;-79
2022/07/23 05:34:15;;;;;;;7.82;4.47;;;13.30;99.90;;;;;;5043761;28;20393;-79
2022/07/23 05:36:41;;;;;;;8.15;5.18;;;13.40;99.90;;;;;;5050897;28;20041;-79
2022/07/23 05:39:06;;;;;;;8.30;4.60;;;13.80;99.90;;;;;;5036376;28;20301;-79
2022/07/23 05:41:32;;;;;;;8.50;4.97;;;14.00;99.90;;;;;;5050701;28;20540;-79
2022/07/23 05:43:58;;;;;;;6.57;5.00;;;13.60;99.90;;;;;;5034070;28;20036;-79
2022/07/23 05:46:23;;;;;;;10.45;5.72;;;13.50;99.90;;;;;;5048804;28;20746;-79
2022/07/23 05:48:52;;;;;;;9.45;5.53;;;13.50;99.90;;;;;;5027861;28;20478;-79
2022/07/23 05:51:24;;;;;;;12.02;6.43;;;13.70;99.90;;;;;;5045761;28;20512;-79
2022/07/23 05:53:50;;;;;;;9.52;6.50;;;13.60;99.90;;;;;;5045067;28;20119;-79
2022/07/23 05:56:17;;;;;;;9.25;6.20;;;13.70;99.90;;;;;;5044288;28;20095;-79
2022/07/23 05:58:43;;;;;;;13.07;6.78;;;14.20;99.90;;;;;;5050389;28;20045;-79
2022/07/23 06:01:09;;;;;;;10.43;6.43;;;13.80;99.90;;;;;;5057992;28;20109;-81
2022/07/23 06:03:35;;;;;;;10.07;5.45;;;13.90;99.90;;;;;;5060666;28;20033;-80
2022/07/23 06:06:00;;;;;;;9.45;5.90;;;14.20;99.90;;;;;;5039760;28;20040;-80
2022/07/23 06:08:26;;;;;;;11.68;5.63;;;14.00;99.90;;;;;;5058939;28;20040;-79
2022/07/23 06:10:52;;;;;;;8.88;6.15;;;14.00;99.90;;;;;;5041482;28;20476;-79
2022/07/23 06:13:18;;;;;;;9.63;6.00;;;14.20;99.90;;;;;;5044391;28;20437;-79
2022/07/23 06:15:44;;;;;;;7.82;5.32;;;14.20;99.90;;;;;;5053367;28;20045;-80
2022/07/23 06:18:09;;;;;;;10.05;5.85;;;14.50;99.90;;;;;;5051184;28;20044;-79
2022/07/23 06:20:35;;;;;;;8.95;5.70;;;14.20;99.90;;;;;;5029357;28;20033;-80
2022/07/23 06:23:01;;;;;;;9.15;5.18;;;14.20;99.90;;;;;;5039994;28;20041;-80
2022/07/23 06:25:26;;;;;;;7.47;4.65;;;14.60;99.90;;;;;;5035065;28;20037;-80
2022/07/23 06:27:52;;;;;;;8.20;5.30;;;14.30;99.90;;;;;;5044207;28;20460;-79
2022/07/23 06:30:18;;;;;;;7.30;4.47;;;14.40;99.90;;;;;;5040698;28;20065;-80
2022/07/23 06:32:45;;;;;;;8.13;4.53;;;14.40;99.90;;;;;;5028870;28;20036;-78
2022/07/23 06:35:10;;;;;;;7.93;4.72;;;14.40;99.90;;;;;;5049687;28;20106;-77
2022/07/23 06:37:36;;;;;;;8.90;4.97;;;14.60;99.90;;;;;;5038390;28;20474;-77
2022/07/23 06:40:03;;;;;;;9.07;4.78;;;14.50;99.90;;;;;;5048470;28;21298;-76
2022/07/23 06:42:29;;;;;;;9.15;4.70;;;14.60;99.90;;;;;;5046660;28;20036;-77
2022/07/23 06:44:54;;;;;;;7.13;4.43;;;14.60;99.90;;;;;;5049327;28;20512;-78
2022/07/23 06:47:22;;;;;;;8.52;4.80;;;14.70;99.90;;;;;;5038459;28;20040;-78
2022/07/23 06:49:48;;;;;;;7.90;3.85;;;14.90;99.90;;;;;;5042705;28;20406;-78
2022/07/23 06:52:14;;;;;;;7.43;3.90;;;14.80;99.90;;;;;;5038569;28;20047;-77
2022/07/23 06:54:39;;;;;;;6.85;3.85;;;14.90;99.90;;;;;;5046019;28;20037;-78
2022/07/23 06:57:05;;;;;;;5.63;3.50;;;14.90;99.90;;;;;;5049585;28;20120;-78
2022/07/23 06:59:31;;;;;;;9.18;3.45;;;14.90;99.90;;;;;;5034813;28;20040;-77
2022/07/23 07:01:58;;;;;;;8.43;3.83;;;14.90;99.90;;;;;;5038165;28;20172;-77
2022/07/23 07:04:24;;;;;;;5.65;3.50;;;15.10;99.90;;;;;;5042149;28;20120;-78
2022/07/23 07:06:50;;;;;;;6.03;3.42;;;15.00;99.90;;;;;;5039928;28;20171;-78
2022/07/23 07:09:15;;;;;;;4.95;2.97;;;15.00;99.90;;;;;;5063149;28;20036;-77
2022/07/23 07:11:41;;;;;;;5.47;2.75;;;15.10;99.90;;;;;;5035604;28;20033;-77
2022/07/23 07:14:07;;;;;;;5.28;2.70;;;15.20;99.90;;;;;;5040651;28;20049;-79
2022/07/23 07:16:32;;;;;;;6.13;2.25;;;15.20;99.90;;;;;;5048011;28;20041;-78
2022/07/23 07:18:58;;;;;;;4.07;2.05;;;15.20;99.90;;;;;;5039073;28;20068;-78
2022/07/23 07:21:24;;;;;;;5.68;1.92;;;15.40;99.90;;;;;;5043115;28;20041;-79
2022/07/23 07:23:49;;;;;;;7.05;2.42;;;15.30;99.90;;;;;;5044475;28;20469;-79
2022/07/23 07:26:15;;;;;;;3.95;1.70;;;15.40;99.90;;;;;;5044610;28;20037;-78
2022/07/23 07:28:40;;;;;;;5.90;2.10;;;15.60;99.90;;;;;;5056505;28;20439;-77
2022/07/23 07:31:08;;;;;;;2.90;1.85;;;15.50;99.90;;;;;;5030235;28;20057;-79
2022/07/23 07:33:34;;;;;;;4.22;1.83;;;15.60;99.90;;;;;;5047849;28;20037;-79
2022/07/23 07:36:00;;;;;;;3.60;1.55;;;15.60;99.90;;;;;;5037231;28;20044;-79
2022/07/23 07:38:26;;;;;;;4.32;1.60;;;15.60;99.90;;;;;;5039676;28;20041;-77
2022/07/23 07:40:51;;;;;;;5.85;1.90;;;15.70;99.90;;;;;;5042711;28;20094;-80
2022/07/23 07:43:17;;;;;;;6.15;1.77;;;15.70;99.90;;;;;;5038375;28;20103;-78
2022/07/23 07:45:43;;;;;;;3.17;1.67;;;15.80;99.90;;;;;;5047523;28;20037;-79
2022/07/23 07:48:08;;;;;;;3.08;1.75;;;15.80;99.90;;;;;;5050607;28;20041;-78
2022/07/23 07:50:34;;;;;;;20.75;2.97;;;15.90;99.90;;;;;;5056417;28;20036;-77
2022/07/23 07:52:59;;;;;;;3.08;2.08;;;16.00;99.90;;;;;;5062425;28;20515;-78
2022/07/23 07:55:26;;;;;;;4.53;1.70;;;16.10;99.90;;;;;;5049602;28;20100;-79
2022/07/23 07:57:52;;;;;;;4.53;1.70;;;16.20;99.90;;;;;;5059876;28;20505;-77
2022/07/23 08:00:18;;;;;;;2.67;1.35;;;16.30;99.90;;;;;;5047910;28;20048;-79
2022/07/23 08:02:49;;;;;;;2.92;1.48;;;16.40;99.90;;;;;;5052544;28;20044;-81
2022/07/23 08:05:18;;;;;;;3.58;1.55;;;16.60;99.90;;;;;;5037661;28;20041;-80
2022/07/23 08:07:44;;;;;;;4.72;1.65;;;16.70;99.90;;;;;;5032414;28;20056;-82
2022/07/23 08:10:10;;;;;;;1.45;1.35;;;16.80;99.90;;;;;;5035756;28;20032;-76
2022/07/23 08:12:47;;;;;;;3.00;1.58;;;17.00;99.90;;;;;;5066353;28;20033;-79
2022/07/23 08:15:15;;;;;;;3.13;1.60;;;17.10;99.90;;;;;;5061370;28;20086;-80
2022/07/23 08:17:42;;;;;;;2.47;1.42;;;17.10;99.90;;;;;;5033113;28;20037;-82
2022/07/23 08:20:10;;;;;;;7.60;1.60;;;17.10;99.90;;;;;;5047118;28;20033;-76
2022/07/23 08:22:51;;;;;;;3.30;1.40;;;17.20;99.90;;;;;;5039049;28;20048;-77
2022/07/23 08:25:24;;;;;;;2.50;1.40;;;17.20;99.90;;;;;;5047878;28;20082;-77
2022/07/23 08:27:50;;;;;;;6.10;1.45;;;17.30;99.90;;;;;;5048463;28;20411;-77
2022/07/23 08:30:17;;;;;;;2.08;1.30;;;17.40;99.90;;;;;;5047820;28;20033;-77
2022/07/23 08:33:03;;;;;;;1.15;1.05;;;17.50;99.90;;;;;;5044934;28;20452;-78
2022/07/23 08:35:41;;;;;;;1.50;1.10;;;17.50;99.90;;;;;;5044733;28;20028;-75
2022/07/23 08:38:12;;;;;;;2.10;1.33;;;17.60;99.90;;;;;;5053460;28;20054;-76
2022/07/23 08:40:40;;;;;;;1.92;1.05;;;17.60;99.90;;;;;;5043016;28;20102;-76
2022/07/23 08:43:11;;;;;;;3.13;1.10;;;17.60;99.90;;;;;;5034449;28;20128;-77
2022/07/23 08:45:39;;;;;;;2.38;1.20;;;17.70;99.90;;;;;;5044148;28;20048;-77
2022/07/23 08:48:08;;;;;;;3.58;1.20;;;17.80;99.90;;;;;;5046009;28;20047;-77
2022/07/23 08:50:36;;;;;;;3.58;1.25;;;17.90;99.90;;;;;;5040075;28;20029;-77
2022/07/23 08:53:05;;;;;;;5.65;1.40;;;17.90;99.90;;;;;;5044626;28;20557;-79
2022/07/23 08:55:30;;;;;;;1.63;1.20;;;18.00;99.90;;;;;;5053301;28;20044;-77
2022/07/23 08:57:56;;;;;;;2.55;1.15;;;18.00;99.90;;;;;;5050426;28;20082;-77
2022/07/23 09:00:22;;;;;;;2.55;1.20;;;18.00;99.90;;;;;;5048137;28;20045;-77
2022/07/23 09:02:49;;;;;;;2.20;1.38;;;18.10;99.90;;;;;;5047141;28;20155;-78
2022/07/23 09:05:15;;;;;;;4.10;1.42;;;18.30;99.90;;;;;;5036219;28;20087;-77
2022/07/23 09:08:07;;;;;;;3.55;1.33;;;18.30;99.90;;;;;;5041982;28;20385;-77
2022/07/23 09:10:51;;;;;;;1.67;1.30;;;18.40;99.90;;;;;;5045231;28;20627;-77
2022/07/23 09:13:40;;;;;;;3.83;1.38;;;18.40;99.90;;;;;;5042408;28;20057;-77
2022/07/23 09:16:07;;;;;;;1.60;0.98;;;18.70;99.90;;;;;;5049322;28;20145;-77
2022/07/23 09:18:34;;;;;;;1.90;1.05;;;19.10;99.90;;;;;;5048215;28;20040;-75
2022/07/23 09:21:07;;;;;;;1.85;1.13;;;19.50;99.90;;;;;;5050051;28;20575;-77
2022/07/23 09:23:43;;;;;;;1.85;1.13;;;19.80;99.90;;;;;;5025943;28;20402;-77
2022/07/23 09:26:29;;;;;;;2.45;1.00;;;20.20;99.90;;;;;;5048490;28;20502;-77
2022/07/23 09:29:09;;;;;;;2.03;1.23;;;20.50;99.90;;;;;;5034981;28;20120;-77
2022/07/23 09:31:42;;;;;;;1.00;0.95;;;20.90;99.90;;;;;;5041802;28;20041;-75
2022/07/23 09:34:14;;;;;;;1.42;1.02;;;21.10;99.90;;;;;;5049200;28;20056;-77
2022/07/23 09:36:40;;;;;;;2.58;1.05;;;21.20;99.90;;;;;;5045943;28;20441;-77
2022/07/23 09:39:08;;;;;;;1.17;1.00;;;21.10;99.90;;;;;;5053461;28;20045;-78
2022/07/23 09:41:42;;;;;;;2.00;1.27;;;21.00;99.90;;;;;;5051640;28;20032;-77
2022/07/23 09:44:16;;;;;;;2.70;1.10;;;20.90;99.90;;;;;;5037774;28;20048;-76
2022/07/23 09:46:43;;;;;;;1.75;1.00;;;21.20;99.90;;;;;;5030043;28;20033;-76
2022/07/23 09:49:21;;;;;;;1.33;1.00;;;21.40;99.90;;;;;;5049206;28;20481;-77
2022/07/23 09:51:58;;;;;;;1.30;1.10;;;21.60;99.90;;;;;;5048534;28;20036;-76
2022/07/23 09:54:39;;;;;;;3.10;1.15;;;21.80;99.90;;;;;;5053180;28;20041;-77
2022/07/23 09:57:07;;;;;;;5.03;1.33;;;22.10;99.20;;;;;;5042725;28;20032;-76
2022/07/23 09:59:36;;;;;;;1.27;1.15;;;22.40;99.70;;;;;;5042717;28;20810;-75
2022/07/23 10:02:04;;;;;;;1.95;1.30;;;22.60;99.20;;;;;;5044601;28;20033;-76
2022/07/23 10:04:31;;;;;;;1.58;1.20;;;22.80;99.30;;;;;;5051047;28;20432;-76
2022/07/23 10:07:00;;;;;;;2.58;1.40;;;22.80;98.00;;;;;;5047481;28;20060;-76
2022/07/23 10:09:32;;;;;;;2.83;1.50;;;22.60;96.90;;;;;;5036458;28;20453;-77
2022/07/23 10:14:34;;;;;;;1.65;1.15;;;22.20;96.70;;;;;;5042063;28;20057;-77
2022/07/23 10:17:03;;;;;;;1.33;1.23;;;22.10;97.00;;;;;;5049779;28;20041;-77
2022/07/23 10:19:31;;;;;;;1.42;1.27;;;22.10;96.70;;;;;;5023296;28;20033;-76
2022/07/23 10:22:03;;;;;;;1.63;1.10;;;22.20;96.90;;;;;;5029796;28;20049;-77
2022/07/23 10:24:38;;;;;;;;;;;22.40;97.40;;;;;;5045508;28;20481;-78
2022/07/23 10:27:25;;;;;;;1.20;1.10;;;22.60;95.10;;;;;;5043585;28;19931;-77
2022/07/23 10:30:19;;;;;;;1.65;1.10;;;22.60;93.50;;;;;;5042973;28;20048;-77
2022/07/23 10:33:10;;;;;;;1.98;1.15;;;22.60;94.60;;;;;;5048254;28;20462;-78
2022/07/23 10:36:07;;;;;;;2.90;1.20;;;22.90;95.00;;;;;;5031802;28;20040;-78
2022/07/23 10:38:56;;;;;;;2.28;1.27;;;22.90;95.00;;;;;;5037743;28;20041;-78
2022/07/23 10:41:52;;;;;;;1.33;1.10;;;22.80;94.90;;;;;;5047401;28;20040;-78
2022/07/23 10:44:22;;;;;;;1.27;1.15;;;22.90;94.80;;;;;;5026732;28;20467;-77
2022/07/23 10:49:34;;;;;;;1.63;1.25;;;23.20;93.80;;;;;;5064119;28;20493;-77
2022/07/23 10:52:15;;;;;;;2.00;1.20;;;23.50;94.60;;;;;;5040848;28;20032;-77
2022/07/23 10:54:42;;;;;;;1.75;1.30;;;23.70;93.60;;;;;;5027323;28;20060;-76
2022/07/23 10:57:09;;;;;;;1.77;1.30;;;23.70;94.10;;;;;;5044280;28;20105;-76
2022/07/23 10:59:59;;;;;;;3.20;1.45;;;23.80;94.10;;;;;;5048364;28;20056;-77
2022/07/23 11:02:25;;;;;;;1.42;1.20;;;24.00;91.50;;;;;;5047557;28;20033;-78
2022/07/23 11:04:52;;;;;;;1.70;1.40;;;23.90;92.40;;;;;;5019761;28;20399;-78
2022/07/23 11:07:19;;;;;;;1.55;1.23;;;23.80;91.90;;;;;;5046641;28;20060;-78
2022/07/23 11:09:46;;;;;;;2.42;1.38;;;23.60;92.00;;;;;;5038891;28;20078;-76
2022/07/23 11:12:21;;;;;;;1.77;1.30;;;23.20;91.80;;;;;;5046663;28;20060;-76
2022/07/23 11:15:10;;;;;;;2.45;1.15;;;22.90;91.60;;;;;;5042723;28;20049;-78
2022/07/23 11:17:35;;;;;;;2.47;1.60;;;22.80;92.50;;;;;;5046353;28;20052;-78
2022/07/23 11:20:11;;;;;;;3.90;1.55;;;22.80;93.20;;;;;;5047603;28;20037;-77
2022/07/23 11:22:48;;;;;;;1.20;0.95;;;22.80;92.80;;;;;;5059734;28;20659;-77
2022/07/23 11:25:30;;;;;;;1.73;1.17;;;22.90;92.80;;;;;;5048910;28;20568;-77
2022/07/23 11:28:09;;;;;;;1.83;1.27;;;22.90;92.30;;;;;;5043807;28;20476;-77
2022/07/23 11:30:34;;;;;;;1.70;1.10;;;22.80;92.60;;;;;;5048917;28;20041;-77
2022/07/23 11:33:07;;;;;;;1.75;1.40;;;22.80;93.40;;;;;;5068553;28;20044;-77
2022/07/23 11:35:34;;;;;;;2.47;1.30;;;22.80;93.70;;;;;;5048935;28;20046;-77
2022/07/23 11:38:14;;;;;;;2.03;1.33;;;23.00;94.00;;;;;;5052126;28;20489;-77
2022/07/23 11:40:43;;;;;;;1.92;1.50;;;23.10;93.60;;;;;;5036343;28;20068;-76
2022/07/23 11:43:10;;;;;;;2.30;1.70;;;23.20;93.40;;;;;;5032289;28;20040;-76
2022/07/23 11:45:39;;;;;;;1.60;1.50;;;23.20;92.50;;;;;;5058284;28;20483;-77
2022/07/23 11:48:07;;;;;;;2.08;1.40;;;23.10;92.70;;;;;;5038460;28;20045;-76
2022/07/23 11:50:34;;;;;;;2.05;1.38;;;23.10;92.90;;;;;;5043903;28;20056;-77
2022/07/23 11:53:00;;;;;;;3.67;1.40;;;23.30;93.30;;;;;;5042436;28;20041;-77
2022/07/23 11:55:28;;;;;;;1.58;1.20;;;23.70;93.50;;;;;;5055723;28;20507;-77
2022/07/23 11:57:54;;;;;;;1.75;1.23;;;24.20;93.40;;;;;;5052460;28;20052;-77
2022/07/23 12:00:23;;;;;;;1.90;1.42;;;24.30;92.90;;;;;;5043831;28;20052;-77
2022/07/23 12:02:52;;;;;;;3.72;1.80;;;24.30;92.40;;;;;;5037540;28;20037;-77
2022/07/23 12:05:25;;;;;;;2.10;1.52;;;24.10;92.20;;;;;;5043456;28;20054;-77
2022/07/23 12:07:53;;;;;;;1.60;1.50;;;24.20;92.20;;;;;;5047650;28;20128;-77
2022/07/23 12:10:23;;;;;;;3.05;1.38;;;24.60;91.90;;;;;;5045769;28;20037;-77
2022/07/23 12:12:49;;;;;;;2.97;1.40;;;24.80;91.50;;;;;;5038370;28;20050;-77
2022/07/23 12:15:17;;;;;;;2.72;2.00;;;25.00;91.80;;;;;;5034009;28;20037;-76
2022/07/23 12:17:47;;;;;;;3.60;1.63;;;25.20;90.20;;;;;;5050481;28;20108;-77
2022/07/23 12:20:16;;;;;;;3.58;1.67;;;25.20;90.10;;;;;;5053672;28;20091;-77
2022/07/23 12:22:49;;;;;;;3.08;1.70;;;25.20;90.30;;;;;;5043643;28;20033;-77
2022/07/23 12:25:21;;;;;;;2.35;1.63;;;25.30;89.70;;;;;;5024011;28;20041;-76
2022/07/23 12:28:02;;;;;;;1.85;1.65;;;25.30;89.40;;;;;;5024061;28;20321;-76
2022/07/23 12:30:42;;;;;;;1.80;1.40;;;25.40;86.60;;;;;;5025803;28;20124;-77
2022/07/23 12:33:09;;;;;;;2.25;1.50;;;25.30;87.40;;;;;;5033241;28;20132;-76
2022/07/23 12:35:44;;;;;;;1.80;1.48;;;25.30;89.70;;;;;;5025443;28;20425;-76
2022/07/23 12:38:18;;;;;;;3.47;1.80;;;25.50;89.60;;;;;;5035495;28;20053;-76
2022/07/23 12:40:59;;;;;;;2.10;1.55;;;25.60;87.50;;;;;;5023148;28;20074;-77
2022/07/23 12:43:35;;;;;;;3.53;1.63;;;25.60;87.10;;;;;;5027297;28;20501;-76
2022/07/23 12:46:10;;;;;;;3.58;1.70;;;25.50;86.50;;;;;;5034476;28;20038;-77
2022/07/23 12:48:36;;;;;;;1.58;1.45;;;25.50;87.00;;;;;;5027579;28;20038;-77
2022/07/23 12:51:19;;;;;;;2.33;1.77;;;25.60;88.00;;;;;;5025105;28;20171;-77
2022/07/23 12:53:47;;;;;;;2.60;1.73;;;25.60;85.60;;;;;;5028159;28;20077;-76
2022/07/23 12:56:27;;;;;;;2.20;1.80;;;25.40;86.70;;;;;;5017452;28;20045;-76
2022/07/23 12:58:57;;;;;;;2.00;1.67;;;25.20;86.50;;;;;;5013343;28;20056;-76